sensor_id;sensor_type;location;lat;lon;timestamp;pressure;altitude;pressure_sealevel;temperature;humidity
31044;BME280;17710;52.520;13.352;2024-01-07T00:01:39;101488.63;;;4.77;50.29
31044;BME280;17710;52.520;13.352;2024-01-07T00:04:06;101490.34;;;4.74;50.49
31044;BME280;17710;52.520;13.352;2024-01-07T00:06:33;101494.72;;;4.73;49.77
31044;BME280;17710;52.520;13.352;2024-01-07T00:09:00;101485.13;;;4.65;50.72
31044;BME280;17710;52.520;13.352;2024-01-07T00:11:26;101485.97;;;4.80;50.48
31044;BME280;17710;52.520;13.352;2024-01-07T00:13:52;101494.72;;;4.76;50.24
31044;BME280;17710;52.520;13.352;2024-01-07T00:16:19;101494.72;;;4.73;50.65
31044;BME280;17710;52.520;13.352;2024-01-07T00:18:45;101497.34;;;4.82;50.42
31044;BME280;17710;52.520;13.352;2024-01-07T00:21:13;101490.38;;;4.77;50.00
31044;BME280;17710;52.520;13.352;2024-01-07T00:23:40;101497.34;;;4.81;50.65
31044;BME280;17710;52.520;13.352;2024-01-07T00:26:06;101501.69;;;5.00;49.31
31044;BME280;17710;52.520;13.352;2024-01-07T00:28:33;101502.59;;;4.90;49.34
31044;BME280;17710;52.520;13.352;2024-01-07T00:30:59;101507.81;;;4.87;49.58
31044;BME280;17710;52.520;13.352;2024-01-07T00:33:26;101515.69;;;4.86;49.74
31044;BME280;17710;52.520;13.352;2024-01-07T00:35:52;101506.94;;;4.68;49.01
31044;BME280;17710;52.520;13.352;2024-01-07T00:38:20;101513.03;;;4.75;49.21
31044;BME280;17710;52.520;13.352;2024-01-07T00:40:47;101519.97;;;4.29;49.30
31044;BME280;17710;52.520;13.352;2024-01-07T00:43:13;101526.09;;;4.37;49.40
31044;BME280;17710;52.520;13.352;2024-01-07T00:45:40;101529.59;;;4.50;48.75
31044;BME280;17710;52.520;13.352;2024-01-07T00:48:07;101528.75;;;4.52;48.56
31044;BME280;17710;52.520;13.352;2024-01-07T00:50:33;101533.97;;;4.60;48.28
31044;BME280;17710;52.520;13.352;2024-01-07T00:52:59;101542.69;;;4.56;48.37
31044;BME280;17710;52.520;13.352;2024-01-07T00:55:27;101541.84;;;4.57;47.98
31044;BME280;17710;52.520;13.352;2024-01-07T00:57:54;101551.41;;;4.55;48.25
31044;BME280;17710;52.520;13.352;2024-01-07T01:00:21;101556.66;;;4.55;48.13
31044;BME280;17710;52.520;13.352;2024-01-07T01:02:48;101557.53;;;4.67;47.68
31044;BME280;17710;52.520;13.352;2024-01-07T01:05:15;101557.53;;;4.61;48.00
31044;BME280;17710;52.520;13.352;2024-01-07T01:07:41;101565.41;;;4.63;47.89
31044;BME280;17710;52.520;13.352;2024-01-07T01:10:09;101567.09;;;4.49;48.19
31044;BME280;17710;52.520;13.352;2024-01-07T01:12:36;101564.44;;;4.27;48.02
31044;BME280;17710;52.520;13.352;2024-01-07T01:15:04;101558.28;;;4.10;47.72
31044;BME280;17710;52.520;13.352;2024-01-07T01:17:31;101573.94;;;3.99;48.48
31044;BME280;17710;52.520;13.352;2024-01-07T01:19:58;101572.28;;;4.26;47.96
31044;BME280;17710;52.520;13.352;2024-01-07T01:22:24;101574.91;;;4.35;48.66
31044;BME280;17710;52.520;13.352;2024-01-07T01:24:51;101573.19;;;4.41;47.49
31044;BME280;17710;52.520;13.352;2024-01-07T01:27:18;101581.97;;;4.57;47.08
31044;BME280;17710;52.520;13.352;2024-01-07T01:29:46;101583.63;;;4.34;47.60
31044;BME280;17710;52.520;13.352;2024-01-07T01:32:12;101577.50;;;4.24;47.32
31044;BME280;17710;52.520;13.352;2024-01-07T01:34:39;101594.91;;;4.13;47.49
31044;BME280;17710;52.520;13.352;2024-01-07T01:37:08;101597.50;;;4.10;47.54
31044;BME280;17710;52.520;13.352;2024-01-07T01:39:34;101606.13;;;3.94;47.70
31044;BME280;17710;52.520;13.352;2024-01-07T01:42:01;101606.22;;;4.09;47.56
31044;BME280;17710;52.520;13.352;2024-01-07T01:44:28;101600.94;;;3.97;47.43
31044;BME280;17710;52.520;13.352;2024-01-07T01:46:56;101608.81;;;4.03;47.11
31044;BME280;17710;52.520;13.352;2024-01-07T01:49:22;101607.09;;;4.11;47.42
31044;BME280;17710;52.520;13.352;2024-01-07T01:51:49;101607.06;;;4.02;47.49
31044;BME280;17710;52.520;13.352;2024-01-07T01:54:18;101616.66;;;4.05;47.78
31044;BME280;17710;52.520;13.352;2024-01-07T01:56:45;101614.75;;;3.76;47.78
31044;BME280;17710;52.520;13.352;2024-01-07T01:59:11;101614.94;;;4.10;47.58
31044;BME280;17710;52.520;13.352;2024-01-07T02:01:38;101619.34;;;4.18;47.52
31044;BME280;17710;52.520;13.352;2024-01-07T02:04:07;101619.25;;;4.03;46.92
31044;BME280;17710;52.520;13.352;2024-01-07T02:06:34;101624.53;;;4.06;47.00
31044;BME280;17710;52.520;13.352;2024-01-07T02:09:01;101619.22;;;3.94;46.75
31044;BME280;17710;52.520;13.352;2024-01-07T02:11:28;101620.16;;;4.07;46.40
31044;BME280;17710;52.520;13.352;2024-01-07T02:13:55;101627.03;;;3.88;47.43
31044;BME280;17710;52.520;13.352;2024-01-07T02:16:21;101620.00;;;3.78;47.23
31044;BME280;17710;52.520;13.352;2024-01-07T02:18:49;101635.84;;;4.08;47.07
31044;BME280;17710;52.520;13.352;2024-01-07T02:21:17;101625.38;;;4.05;46.69
31044;BME280;17710;52.520;13.352;2024-01-07T02:23:43;101626.09;;;3.81;47.29
31044;BME280;17710;52.520;13.352;2024-01-07T02:26:11;101631.31;;;3.75;47.55
31044;BME280;17710;52.520;13.352;2024-01-07T02:28:37;101628.41;;;3.34;47.85
31044;BME280;17710;52.520;13.352;2024-01-07T02:31:04;101638.91;;;3.39;48.06
31044;BME280;17710;52.520;13.352;2024-01-07T02:33:30;101626.75;;;3.48;48.51
31044;BME280;17710;52.520;13.352;2024-01-07T02:35:57;101632.75;;;3.32;48.14
31044;BME280;17710;52.520;13.352;2024-01-07T02:38:23;101637.81;;;3.14;48.72
31044;BME280;17710;52.520;13.352;2024-01-07T02:40:49;101642.03;;;3.03;49.18
31044;BME280;17710;52.520;13.352;2024-01-07T02:43:17;101641.28;;;3.13;48.71
31044;BME280;17710;52.520;13.352;2024-01-07T02:45:43;101644.59;;;2.97;48.58
31044;BME280;17710;52.520;13.352;2024-01-07T02:48:10;101648.94;;;2.95;48.92
31044;BME280;17710;52.520;13.352;2024-01-07T02:50:36;101649.81;;;2.97;49.19
31044;BME280;17710;52.520;13.352;2024-01-07T02:53:03;101650.81;;;3.09;49.03
31044;BME280;17710;52.520;13.352;2024-01-07T02:55:30;101647.34;;;3.10;48.17
31044;BME280;17710;52.520;13.352;2024-01-07T02:57:56;101648.06;;;2.96;48.53
31044;BME280;17710;52.520;13.352;2024-01-07T03:00:24;101648.91;;;2.89;48.82
31044;BME280;17710;52.520;13.352;2024-01-07T03:02:50;101649.75;;;2.88;48.75
31044;BME280;17710;52.520;13.352;2024-01-07T03:05:18;101662.63;;;2.72;49.15
31044;BME280;17710;52.520;13.352;2024-01-07T03:07:44;101661.94;;;2.89;49.04
31044;BME280;17710;52.520;13.352;2024-01-07T03:10:11;101658.44;;;2.90;49.06
31044;BME280;17710;52.520;13.352;2024-01-07T03:12:37;101668.94;;;2.93;48.67
31044;BME280;17710;52.520;13.352;2024-01-07T03:15:05;101660.38;;;3.09;48.41
31044;BME280;17710;52.520;13.352;2024-01-07T03:17:35;101670.41;;;2.69;48.67
31044;BME280;17710;52.520;13.352;2024-01-07T03:20:01;101661.94;;;2.89;48.89
31044;BME280;17710;52.520;13.352;2024-01-07T03:22:28;101676.91;;;3.05;48.75
31044;BME280;17710;52.520;13.352;2024-01-07T03:24:54;101670.78;;;3.03;48.28
31044;BME280;17710;52.520;13.352;2024-01-07T03:27:21;101674.28;;;3.02;48.31
31044;BME280;17710;52.520;13.352;2024-01-07T03:29:47;101673.53;;;3.15;48.17
31044;BME280;17710;52.520;13.352;2024-01-07T03:32:14;101688.22;;;3.05;48.44
31044;BME280;17710;52.520;13.352;2024-01-07T03:34:41;101686.31;;;2.91;48.18
31044;BME280;17710;52.520;13.352;2024-01-07T03:37:08;101686.97;;;2.71;48.69
31044;BME280;17710;52.520;13.352;2024-01-07T03:39:34;101689.56;;;2.68;49.00
31044;BME280;17710;52.520;13.352;2024-01-07T03:42:01;101690.38;;;2.66;49.07
31044;BME280;17710;52.520;13.352;2024-01-07T03:44:27;101695.28;;;2.40;49.61
31044;BME280;17710;52.520;13.352;2024-01-07T03:46:54;101704.81;;;2.38;49.61
31044;BME280;17710;52.520;13.352;2024-01-07T03:49:20;101696.81;;;2.23;49.88
31044;BME280;17710;52.520;13.352;2024-01-07T03:51:48;101705.50;;;2.25;49.81
31044;BME280;17710;52.520;13.352;2024-01-07T03:54:14;101711.25;;;1.99;50.61
31044;BME280;17710;52.520;13.352;2024-01-07T03:56:41;101712.25;;;2.11;50.30
31044;BME280;17710;52.520;13.352;2024-01-07T03:59:07;101713.19;;;2.14;50.34
31044;BME280;17710;52.520;13.352;2024-01-07T04:01:34;101712.72;;;2.44;50.04
31044;BME280;17710;52.520;13.352;2024-01-07T04:04:00;101715.47;;;2.53;49.73
31044;BME280;17710;52.520;13.352;2024-01-07T04:06:27;101724.00;;;2.40;49.52
31044;BME280;17710;52.520;13.352;2024-01-07T04:08:55;101732.63;;;2.36;49.29
31044;BME280;17710;52.520;13.352;2024-01-07T04:11:21;101731.72;;;2.34;48.89
31044;BME280;17710;52.520;13.352;2024-01-07T04:13:48;101738.88;;;2.50;48.82
31044;BME280;17710;52.520;13.352;2024-01-07T04:16:17;101739.38;;;2.22;49.36
31044;BME280;17710;52.520;13.352;2024-01-07T04:18:44;101742.16;;;2.34;48.83
31044;BME280;17710;52.520;13.352;2024-01-07T04:21:11;101739.63;;;2.40;49.15
31044;BME280;17710;52.520;13.352;2024-01-07T04:23:38;101750.13;;;2.45;49.17
31044;BME280;17710;52.520;13.352;2024-01-07T04:26:14;101755.53;;;2.58;48.89
31044;BME280;17710;52.520;13.352;2024-01-07T04:28:43;101753.84;;;2.63;48.26
31044;BME280;17710;52.520;13.352;2024-01-07T04:31:10;101747.56;;;2.48;48.41
31044;BME280;17710;52.520;13.352;2024-01-07T04:33:36;101756.34;;;2.54;48.40
31044;BME280;17710;52.520;13.352;2024-01-07T04:36:03;101757.22;;;2.53;48.49
31044;BME280;17710;52.520;13.352;2024-01-07T04:38:29;101755.38;;;2.46;48.30
31044;BME280;17710;52.520;13.352;2024-01-07T04:40:56;101751.94;;;2.50;48.57
31044;BME280;17710;52.520;13.352;2024-01-07T04:43:23;101760.88;;;2.67;48.35
31044;BME280;17710;52.520;13.352;2024-01-07T04:45:50;101758.19;;;2.61;47.99
31044;BME280;17710;52.520;13.352;2024-01-07T04:48:15;101748.69;;;2.66;48.04
31044;BME280;17710;52.520;13.352;2024-01-07T04:50:42;101757.34;;;2.64;47.67
31044;BME280;17710;52.520;13.352;2024-01-07T04:53:08;101757.25;;;2.55;48.09
31044;BME280;17710;52.520;13.352;2024-01-07T04:55:35;101766.66;;;2.45;48.19
31044;BME280;17710;52.520;13.352;2024-01-07T04:58:02;101759.84;;;2.56;48.07
31044;BME280;17710;52.520;13.352;2024-01-07T05:00:31;101757.22;;;2.53;48.09
31044;BME280;17710;52.520;13.352;2024-01-07T05:02:57;101765.63;;;2.34;48.03
31044;BME280;17710;52.520;13.352;2024-01-07T05:05:24;101768.66;;;2.64;48.13
31044;BME280;17710;52.520;13.352;2024-01-07T05:07:50;101774.09;;;2.83;47.17
31044;BME280;17710;52.520;13.352;2024-01-07T05:10:16;101768.06;;;2.87;46.79
31044;BME280;17710;52.520;13.352;2024-01-07T05:12:45;101782.03;;;2.90;47.72
31044;BME280;17710;52.520;13.352;2024-01-07T05:15:11;101783.94;;;3.05;46.63
31044;BME280;17710;52.520;13.352;2024-01-07T05:17:39;101779.66;;;3.08;47.17
31044;BME280;17710;52.520;13.352;2024-01-07T05:20:07;101776.84;;;2.92;47.14
31044;BME280;17710;52.520;13.352;2024-01-07T05:22:34;101791.66;;;2.93;47.30
31044;BME280;17710;52.520;13.352;2024-01-07T05:25:00;101781.38;;;3.09;46.92
31044;BME280;17710;52.520;13.352;2024-01-07T05:27:27;101792.88;;;3.25;46.78
31044;BME280;17710;52.520;13.352;2024-01-07T05:29:54;101794.63;;;3.25;46.57
31044;BME280;17710;52.520;13.352;2024-01-07T05:32:21;101788.50;;;3.21;46.40
31044;BME280;17710;52.520;13.352;2024-01-07T05:34:49;101796.00;;;2.92;46.82
31044;BME280;17710;52.520;13.352;2024-01-07T05:37:16;101787.50;;;3.08;46.89
31044;BME280;17710;52.520;13.352;2024-01-07T05:39:42;101797.06;;;3.11;46.82
31044;BME280;17710;52.520;13.352;2024-01-07T05:42:09;101807.53;;;3.11;46.52
31044;BME280;17710;52.520;13.352;2024-01-07T05:44:35;101810.56;;;3.50;46.70
31044;BME280;17710;52.520;13.352;2024-01-07T05:47:02;101812.00;;;3.21;45.96
31044;BME280;17710;52.520;13.352;2024-01-07T05:49:29;101822.69;;;3.42;46.26
31044;BME280;17710;52.520;13.352;2024-01-07T05:51:57;101817.19;;;3.18;46.29
31044;BME280;17710;52.520;13.352;2024-01-07T05:54:24;101814.63;;;3.22;46.86
31044;BME280;17710;52.520;13.352;2024-01-07T05:56:51;101828.81;;;3.46;45.74
31044;BME280;17710;52.520;13.352;2024-01-07T05:59:17;101819.00;;;3.25;46.47
31044;BME280;17710;52.520;13.352;2024-01-07T06:01:44;101818.91;;;3.17;46.91
31044;BME280;17710;52.520;13.352;2024-01-07T06:04:10;101821.75;;;3.34;46.82
31044;BME280;17710;52.520;13.352;2024-01-07T06:06:37;101828.34;;;3.05;47.31
31044;BME280;17710;52.520;13.352;2024-01-07T06:09:04;101831.31;;;3.35;46.17
31044;BME280;17710;52.520;13.352;2024-01-07T06:11:31;101834.81;;;3.37;46.20
31044;BME280;17710;52.520;13.352;2024-01-07T06:13:57;101841.97;;;3.55;46.26
31044;BME280;17710;52.520;13.352;2024-01-07T06:16:24;101848.06;;;3.55;46.59
31044;BME280;17710;52.520;13.352;2024-01-07T06:18:50;101836.75;;;3.53;46.57
31044;BME280;17710;52.520;13.352;2024-01-07T06:21:17;101834.00;;;3.41;46.53
31044;BME280;17710;52.520;13.352;2024-01-07T06:23:43;101837.63;;;3.55;46.58
31044;BME280;17710;52.520;13.352;2024-01-07T06:26:11;101843.69;;;3.51;46.82
31044;BME280;17710;52.520;13.352;2024-01-07T06:28:37;101834.13;;;3.53;46.69
31044;BME280;17710;52.520;13.352;2024-01-07T06:31:04;101844.84;;;3.81;45.74
31044;BME280;17710;52.520;13.352;2024-01-07T06:33:31;101849.28;;;3.88;45.60
31044;BME280;17710;52.520;13.352;2024-01-07T06:35:57;101852.59;;;3.70;46.31
31044;BME280;17710;52.520;13.352;2024-01-07T06:38:23;101852.63;;;3.75;45.91
31044;BME280;17710;52.520;13.352;2024-01-07T06:40:50;101852.84;;;3.96;45.57
31044;BME280;17710;52.520;13.352;2024-01-07T06:43:18;101860.53;;;3.81;45.95
31044;BME280;17710;52.520;13.352;2024-01-07T06:45:44;101869.19;;;3.75;46.07
31044;BME280;17710;52.520;13.352;2024-01-07T06:48:10;101862.72;;;3.38;46.99
31044;BME280;17710;52.520;13.352;2024-01-07T06:50:37;101861.88;;;3.42;46.86
31044;BME280;17710;52.520;13.352;2024-01-07T06:53:03;101869.88;;;3.56;46.63
31044;BME280;17710;52.520;13.352;2024-01-07T06:55:30;101875.22;;;3.67;46.64
31044;BME280;17710;52.520;13.352;2024-01-07T06:57:56;101878.84;;;3.82;46.31
31044;BME280;17710;52.520;13.352;2024-01-07T07:00:24;101871.09;;;3.87;46.80
31044;BME280;17710;52.520;13.352;2024-01-07T07:02:50;101873.69;;;3.87;46.78
31044;BME280;17710;52.520;13.352;2024-01-07T07:05:17;101884.94;;;3.80;46.38
31044;BME280;17710;52.520;13.352;2024-01-07T07:07:43;101890.97;;;3.74;46.69
31044;BME280;17710;52.520;13.352;2024-01-07T07:10:10;101883.13;;;3.74;46.58
31044;BME280;17710;52.520;13.352;2024-01-07T07:12:37;101886.63;;;3.73;46.52
31044;BME280;17710;52.520;13.352;2024-01-07T07:15:03;101891.75;;;3.66;46.87
31044;BME280;17710;52.520;13.352;2024-01-07T07:17:31;101906.84;;;3.94;46.75
31044;BME280;17710;52.520;13.352;2024-01-07T07:19:58;101897.81;;;3.61;46.66
31044;BME280;17710;52.520;13.352;2024-01-07T07:22:24;101901.56;;;3.88;46.19
31044;BME280;17710;52.520;13.352;2024-01-07T07:24:50;101905.03;;;3.84;45.68
31044;BME280;17710;52.520;13.352;2024-01-07T07:27:17;101900.75;;;3.92;46.13
31044;BME280;17710;52.520;13.352;2024-01-07T07:29:43;101905.13;;;3.93;46.06
31044;BME280;17710;52.520;13.352;2024-01-07T07:32:09;101902.56;;;3.97;45.43
31044;BME280;17710;52.520;13.352;2024-01-07T07:34:37;101909.47;;;3.92;45.99
31044;BME280;17710;52.520;13.352;2024-01-07T07:37:04;101906.91;;;3.97;45.94
31044;BME280;17710;52.520;13.352;2024-01-07T07:39:30;101916.75;;;4.24;45.86
31044;BME280;17710;52.520;13.352;2024-01-07T07:41:57;101916.38;;;3.87;45.82
31044;BME280;17710;52.520;13.352;2024-01-07T07:44:23;101922.75;;;4.12;45.90
31044;BME280;17710;52.520;13.352;2024-01-07T07:46:49;101918.41;;;4.16;45.22
31044;BME280;17710;52.520;13.352;2024-01-07T07:49:16;101931.41;;;4.05;45.88
31044;BME280;17710;52.520;13.352;2024-01-07T07:51:44;101925.88;;;3.78;46.05
31044;BME280;17710;52.520;13.352;2024-01-07T07:54:11;101935.50;;;3.80;45.55
31044;BME280;17710;52.520;13.352;2024-01-07T07:56:39;101934.81;;;3.98;45.44
31044;BME280;17710;52.520;13.352;2024-01-07T07:59:06;101926.13;;;3.99;45.82
31044;BME280;17710;52.520;13.352;2024-01-07T08:01:34;101927.75;;;3.89;46.00
31044;BME280;17710;52.520;13.352;2024-01-07T08:04:01;101932.13;;;3.90;46.07
31044;BME280;17710;52.520;13.352;2024-01-07T08:06:30;101937.41;;;3.96;46.26
31044;BME280;17710;52.520;13.352;2024-01-07T08:08:58;101946.34;;;4.18;45.20
31044;BME280;17710;52.520;13.352;2024-01-07T08:11:24;101950.00;;;4.37;44.92
31044;BME280;17710;52.520;13.352;2024-01-07T08:13:51;101942.19;;;4.38;45.05
31044;BME280;17710;52.520;13.352;2024-01-07T08:16:17;101943.06;;;4.40;45.36
31044;BME280;17710;52.520;13.352;2024-01-07T08:18:44;101945.63;;;4.33;45.09
31044;BME280;17710;52.520;13.352;2024-01-07T08:21:11;101955.38;;;4.54;45.70
31044;BME280;17710;52.520;13.352;2024-01-07T08:23:37;101960.47;;;4.35;45.89
31044;BME280;17710;52.520;13.352;2024-01-07T08:26:05;101950.97;;;4.45;45.53
31044;BME280;17710;52.520;13.352;2024-01-07T08:28:31;101956.72;;;4.09;46.18
31044;BME280;17710;52.520;13.352;2024-01-07T08:30:58;101956.88;;;4.24;45.94
31044;BME280;17710;52.520;13.352;2024-01-07T08:33:25;101965.47;;;4.11;46.11
31044;BME280;17710;52.520;13.352;2024-01-07T08:35:56;101962.19;;;4.33;46.54
31044;BME280;17710;52.520;13.352;2024-01-07T08:38:23;101965.84;;;4.51;45.83
31044;BME280;17710;52.520;13.352;2024-01-07T08:40:50;101969.31;;;4.50;45.40
31044;BME280;17710;52.520;13.352;2024-01-07T08:43:18;101960.50;;;4.40;45.84
31044;BME280;17710;52.520;13.352;2024-01-07T08:45:44;101949.16;;;4.41;45.63
31044;BME280;17710;52.520;13.352;2024-01-07T08:48:11;101959.34;;;4.09;46.84
31044;BME280;17710;52.520;13.352;2024-01-07T08:50:37;101958.88;;;4.53;46.31
31044;BME280;17710;52.520;13.352;2024-01-07T08:53:04;101960.69;;;4.58;46.32
31044;BME280;17710;52.520;13.352;2024-01-07T08:55:31;101962.66;;;4.90;45.39
31044;BME280;17710;52.520;13.352;2024-01-07T08:57:57;101958.31;;;4.90;44.85
31044;BME280;17710;52.520;13.352;2024-01-07T09:00:25;101956.63;;;4.98;45.01
31044;BME280;17710;52.520;13.352;2024-01-07T09:02:53;101963.59;;;4.98;44.63
31044;BME280;17710;52.520;13.352;2024-01-07T09:05:22;101961.00;;;5.04;45.37
31044;BME280;17710;52.520;13.352;2024-01-07T09:07:49;101963.69;;;5.14;44.81
31044;BME280;17710;52.520;13.352;2024-01-07T09:10:17;101964.47;;;5.00;45.13
31044;BME280;17710;52.520;13.352;2024-01-07T09:12:44;101959.34;;;5.18;45.15
31044;BME280;17710;52.520;13.352;2024-01-07T09:15:11;101977.56;;;4.98;46.29
31044;BME280;17710;52.520;13.352;2024-01-07T09:17:39;101974.16;;;5.14;45.21
31044;BME280;17710;52.520;13.352;2024-01-07T09:20:07;101966.31;;;5.14;45.05
31044;BME280;17710;52.520;13.352;2024-01-07T09:22:35;101968.09;;;5.18;46.04
31044;BME280;17710;52.520;13.352;2024-01-07T09:25:02;101976.72;;;5.04;45.98
31044;BME280;17710;52.520;13.352;2024-01-07T09:27:29;101973.19;;;4.96;46.60
31044;BME280;17710;52.520;13.352;2024-01-07T09:29:55;101974.13;;;5.08;46.68
31044;BME280;17710;52.520;13.352;2024-01-07T09:32:22;101977.53;;;4.92;46.58
31044;BME280;17710;52.520;13.352;2024-01-07T09:34:51;101974.94;;;5.00;46.92
31044;BME280;17710;52.520;13.352;2024-01-07T09:37:18;101975.03;;;5.10;46.46
31044;BME280;17710;52.520;13.352;2024-01-07T09:39:44;101977.44;;;4.83;47.61
31044;BME280;17710;52.520;13.352;2024-01-07T09:42:13;101972.34;;;5.03;47.21
31044;BME280;17710;52.520;13.352;2024-01-07T09:44:40;101973.22;;;5.03;47.03
31044;BME280;17710;52.520;13.352;2024-01-07T09:47:10;101981.97;;;5.07;47.66
31044;BME280;17710;52.520;13.352;2024-01-07T09:49:37;101968.81;;;4.96;47.17
31044;BME280;17710;52.520;13.352;2024-01-07T09:52:11;101983.66;;;4.96;47.87
31044;BME280;17710;52.520;13.352;2024-01-07T09:54:39;101981.75;;;4.76;48.31
31044;BME280;17710;52.520;13.352;2024-01-07T09:57:07;101977.47;;;4.85;48.14
31044;BME280;17710;52.520;13.352;2024-01-07T09:59:41;101991.25;;;4.62;48.22
31044;BME280;17710;52.520;13.352;2024-01-07T10:02:08;101981.78;;;4.79;49.04
31044;BME280;17710;52.520;13.352;2024-01-07T10:04:35;101983.53;;;4.80;49.04
31044;BME280;17710;52.520;13.352;2024-01-07T10:07:01;101978.41;;;4.96;48.48
31044;BME280;17710;52.520;13.352;2024-01-07T10:09:32;101979.19;;;4.82;48.57
31044;BME280;17710;52.520;13.352;2024-01-07T10:11:59;101980.13;;;4.94;48.83
31044;BME280;17710;52.520;13.352;2024-01-07T10:14:27;101986.38;;;5.12;48.20
31044;BME280;17710;52.520;13.352;2024-01-07T10:16:53;101982.84;;;5.04;48.68
31044;BME280;17710;52.520;13.352;2024-01-07T10:19:20;101976.75;;;5.13;49.04
31044;BME280;17710;52.520;13.352;2024-01-07T10:21:59;101975.72;;;4.88;49.69
31044;BME280;17710;52.520;13.352;2024-01-07T10:24:39;101966.16;;;4.92;49.98
31044;BME280;17710;52.520;13.352;2024-01-07T10:27:07;101967.16;;;5.10;50.19
31044;BME280;17710;52.520;13.352;2024-01-07T10:29:34;101972.38;;;5.07;50.03
31044;BME280;17710;52.520;13.352;2024-01-07T10:32:07;101968.00;;;5.03;50.39
31044;BME280;17710;52.520;13.352;2024-01-07T10:34:37;101968.94;;;5.11;50.17
31044;BME280;17710;52.520;13.352;2024-01-07T10:37:04;101967.06;;;4.95;50.25
31044;BME280;17710;52.520;13.352;2024-01-07T10:39:31;101968.72;;;4.84;50.20
31044;BME280;17710;52.520;13.352;2024-01-07T10:41:59;101961.94;;;5.10;50.59
31044;BME280;17710;52.520;13.352;2024-01-07T10:44:30;101961.88;;;5.07;50.93
31044;BME280;17710;52.520;13.352;2024-01-07T10:46:58;101967.31;;;5.39;50.32
31044;BME280;17710;52.520;13.352;2024-01-07T10:49:27;101968.25;;;5.44;49.52
31044;BME280;17710;52.520;13.352;2024-01-07T10:52:02;101984.06;;;5.72;49.41
31044;BME280;17710;52.520;13.352;2024-01-07T10:54:31;101969.19;;;5.68;48.59
31044;BME280;17710;52.520;13.352;2024-01-07T10:57:07;101973.56;;;5.63;47.73
31044;BME280;17710;52.520;13.352;2024-01-07T10:59:36;101964.78;;;5.59;48.24
31044;BME280;17710;52.520;13.352;2024-01-07T11:02:03;101959.50;;;5.47;48.87
31044;BME280;17710;52.520;13.352;2024-01-07T11:04:37;101961.22;;;5.43;48.65
31044;BME280;17710;52.520;13.352;2024-01-07T11:07:13;101965.66;;;5.58;48.80
31044;BME280;17710;52.520;13.352;2024-01-07T11:09:53;101956.03;;;5.54;49.24
31044;BME280;17710;52.520;13.352;2024-01-07T11:12:23;101956.06;;;5.66;49.18
31044;BME280;17710;52.520;13.352;2024-01-07T11:14:50;101970.13;;;5.76;49.18
31044;BME280;17710;52.520;13.352;2024-01-07T11:17:42;101964.84;;;5.70;49.29
31044;BME280;17710;52.520;13.352;2024-01-07T11:20:17;101958.75;;;5.75;49.01
31044;BME280;17710;52.520;13.352;2024-01-07T11:22:44;101970.00;;;5.54;49.47
31044;BME280;17710;52.520;13.352;2024-01-07T11:25:31;101966.50;;;5.49;49.94
31044;BME280;17710;52.520;13.352;2024-01-07T11:28:01;101970.00;;;5.50;50.40
31044;BME280;17710;52.520;13.352;2024-01-07T11:30:28;101969.06;;;5.45;50.64
31044;BME280;17710;52.520;13.352;2024-01-07T11:32:58;101961.22;;;5.43;50.85
31044;BME280;17710;52.520;13.352;2024-01-07T11:35:53;101957.69;;;5.38;51.11
31044;BME280;17710;52.520;13.352;2024-01-07T11:38:20;101955.75;;;5.02;51.86
31044;BME280;17710;52.520;13.352;2024-01-07T11:40:49;101959.44;;;5.35;51.37
31044;BME280;17710;52.520;13.352;2024-01-07T11:43:19;101948.97;;;5.41;51.52
31044;BME280;17710;52.520;13.352;2024-01-07T11:45:49;101949.81;;;5.35;52.08
31044;BME280;17710;52.520;13.352;2024-01-07T11:48:16;101945.56;;;5.55;51.59
31044;BME280;17710;52.520;13.352;2024-01-07T11:50:42;101949.03;;;5.54;51.39
31044;BME280;17710;52.520;13.352;2024-01-07T11:53:11;101936.00;;;5.80;50.74
31044;BME280;17710;52.520;13.352;2024-01-07T11:55:37;101936.84;;;5.72;50.93
31044;BME280;17710;52.520;13.352;2024-01-07T11:58:04;101936.03;;;5.77;51.17
31044;BME280;17710;52.520;13.352;2024-01-07T12:00:32;101933.25;;;5.45;52.11
31044;BME280;17710;52.520;13.352;2024-01-07T12:02:59;101931.56;;;5.56;52.26
31044;BME280;17710;52.520;13.352;2024-01-07T12:05:26;101927.25;;;5.78;52.19
31044;BME280;17710;52.520;13.352;2024-01-07T12:07:53;101926.25;;;5.41;52.56
31044;BME280;17710;52.520;13.352;2024-01-07T12:10:20;101925.50;;;5.71;52.46
31044;BME280;17710;52.520;13.352;2024-01-07T12:12:47;101925.44;;;5.50;52.46
31044;BME280;17710;52.520;13.352;2024-01-07T12:15:14;101928.94;;;5.58;52.66
31044;BME280;17710;52.520;13.352;2024-01-07T12:17:42;101926.34;;;5.63;52.88
31044;BME280;17710;52.520;13.352;2024-01-07T12:20:09;101920.97;;;5.25;53.91
31044;BME280;17710;52.520;13.352;2024-01-07T12:22:37;101936.84;;;5.67;53.66
31044;BME280;17710;52.520;13.352;2024-01-07T12:25:05;101935.06;;;5.54;53.76
31044;BME280;17710;52.520;13.352;2024-01-07T12:27:33;101937.72;;;5.63;54.02
31044;BME280;17710;52.520;13.352;2024-01-07T12:30:01;101934.25;;;5.79;53.19
31044;BME280;17710;52.520;13.352;2024-01-07T12:32:30;101930.88;;;6.08;52.50
31044;BME280;17710;52.520;13.352;2024-01-07T12:34:58;101941.34;;;5.98;53.12
31044;BME280;17710;52.520;13.352;2024-01-07T12:37:26;101940.38;;;5.74;53.04
31044;BME280;17710;52.520;13.352;2024-01-07T12:39:55;101936.13;;;6.08;52.32
31044;BME280;17710;52.520;13.352;2024-01-07T12:42:24;101932.63;;;6.03;52.55
31044;BME280;17710;52.520;13.352;2024-01-07T12:44:50;101942.09;;;5.72;53.14
31044;BME280;17710;52.520;13.352;2024-01-07T12:47:17;101944.88;;;6.10;52.94
31044;BME280;17710;52.520;13.352;2024-01-07T12:49:43;101951.88;;;6.08;53.04
31044;BME280;17710;52.520;13.352;2024-01-07T12:52:11;101950.97;;;5.99;52.63